Terminal Aerodrome Forecast
Issued by NWS

Current Version | Previous Version | Text Only | Print | Product List | Glossary On
Versions: 1 2 3 4 5 6 7 8 9 10 11 12 13 14 15 16 17 18 19 20
000
FTUS46 KMFR 281134
TAFLMT
TAF
KLMT 281134Z 2812/2912 VRB03KT P6SM FEW002 FEW050 BKN120
     FM281600 VRB03KT P6SM FEW050 BKN200
     FM282100 29006KT P6SM FEW060 BKN200
     FM290300 VRB03KT P6SM FEW060 BKN200
     FM290700 18004KT P6SM BKN050 OVC100=

USA.gov is the U.S. government's official web portal to all federal, state and local government web resources and services.